createdAt,value
2018-04-28T00:02:20.997Z,43.74
2018-04-28T00:04:47.464Z,43.48
2018-04-28T00:07:13.926Z,43.59
2018-04-28T00:09:41.069Z,43.88
2018-04-28T00:12:07.613Z,43.91
2018-04-28T00:14:34.920Z,43.85
2018-04-28T00:17:02.416Z,44.13
2018-04-28T00:19:29.907Z,44.42
2018-04-28T00:21:56.462Z,45.31
2018-04-28T00:24:23.953Z,45.50
2018-04-28T00:26:57.832Z,46.18
2018-04-28T00:29:24.225Z,46.54
2018-04-28T00:31:54.294Z,46.72
2018-04-28T00:34:21.737Z,47.09
2018-04-28T00:36:59.260Z,47.28
2018-04-28T00:39:25.676Z,47.76
2018-04-28T00:41:52.239Z,48.01
2018-04-28T00:44:21.773Z,48.58
2018-04-28T00:46:52.026Z,48.99
2018-04-28T00:49:18.512Z,49.19
2018-04-28T00:51:47.745Z,49.59
2018-04-28T00:54:17.964Z,49.63
2018-04-28T00:56:56.526Z,49.67
2018-04-28T00:59:23.035Z,49.98
2018-04-28T01:01:58.596Z,49.86
2018-04-28T01:04:40.589Z,49.79
2018-04-28T01:07:07.052Z,49.79
2018-04-28T01:09:35.017Z,50.33
2018-04-28T01:12:01.509Z,49.74
2018-04-28T01:14:47.831Z,49.76
2018-04-28T01:17:22.100Z,49.20
2018-04-28T01:22:51.586Z,48.16
2018-04-28T01:25:25.987Z,48.42
2018-04-28T01:27:54.520Z,48.33
2018-04-28T01:36:49.567Z,48.43
2018-04-28T01:39:30.979Z,48.50
2018-04-28T01:44:58.173Z,48.18
2018-04-28T01:47:24.625Z,47.92
2018-04-28T01:49:51.989Z,48.21
2018-04-28T01:52:21.236Z,47.99
2018-04-28T01:57:50.771Z,48.23
2018-04-28T02:00:24.917Z,48.01
2018-04-28T02:02:54.285Z,48.45
2018-04-28T02:08:21.069Z,48.30
2018-04-28T02:10:53.515Z,48.75
2018-04-28T02:13:28.928Z,48.97
2018-04-28T02:16:01.411Z,48.74
2018-04-28T02:18:36.910Z,49.07
2018-04-28T02:24:25.058Z,49.75
2018-04-28T02:26:52.398Z,50.17
2018-04-28T02:29:21.610Z,50.35
2018-04-28T02:31:52.955Z,50.39
2018-04-28T02:43:21.968Z,50.01
2018-04-28T02:45:52.327Z,50.31
2018-04-28T02:51:29.183Z,50.09
2018-04-28T02:53:58.206Z,49.71
2018-04-28T02:56:28.261Z,49.90
2018-04-28T02:58:55.505Z,49.69
2018-04-28T03:01:43.142Z,49.22
2018-04-28T03:04:14.451Z,49.47
2018-04-28T03:06:54.881Z,49.39
2018-04-28T03:09:26.709Z,50.21
2018-04-28T03:11:59.541Z,49.99
2018-04-28T03:14:26.047Z,50.02
2018-04-28T03:16:59.926Z,50.24
2018-04-28T03:19:33.204Z,49.84
2018-04-28T03:21:59.661Z,49.67
2018-04-28T03:27:50.569Z,50.28
2018-04-28T03:30:31.926Z,50.60
2018-04-28T03:33:01.191Z,50.56
2018-04-28T03:38:42.744Z,51.39
2018-04-28T03:41:21.597Z,51.63
2018-04-28T03:44:06.940Z,52.65
2018-04-28T03:46:36.191Z,52.50
2018-04-28T03:49:19.865Z,52.39
2018-04-28T03:54:55.574Z,52.70
2018-04-28T04:00:50.736Z,53.71
2018-04-28T04:03:22.415Z,53.58
2018-04-28T04:08:53.285Z,53.83
2018-04-28T04:11:41.381Z,54.46
2018-04-28T04:14:14.267Z,54.60
2018-04-28T04:22:56.619Z,55.04
2018-04-28T04:29:01.718Z,55.28
2018-04-28T04:31:37.091Z,54.91
2018-04-28T04:36:59.261Z,54.71
2018-04-28T04:39:56.531Z,53.64
2018-04-28T04:42:31.785Z,54.90
2018-04-28T04:45:06.271Z,54.63
2018-04-28T04:47:38.798Z,51.21
2018-04-28T04:56:11.712Z,50.07
2018-04-28T04:58:49.213Z,50.17
2018-04-28T05:01:34.268Z,50.19
2018-04-28T05:10:43.606Z,49.54
2018-04-28T05:16:23.176Z,49.99
2018-04-28T05:19:00.358Z,49.32
2018-04-28T05:31:01.994Z,51.22
2018-04-28T05:36:38.750Z,50.06
2018-04-28T05:39:31.618Z,49.11
2018-04-28T05:49:02.675Z,47.44
2018-04-28T05:55:16.009Z,47.74
2018-04-28T06:04:30.988Z,47.91
2018-04-28T06:13:35.045Z,47.75
2018-04-28T06:16:12.448Z,48.17
2018-04-28T06:18:57.374Z,48.70
2018-04-28T06:21:23.753Z,48.95
2018-04-28T06:23:50.342Z,49.06
2018-04-28T06:26:16.905Z,49.00
2018-04-28T06:28:44.112Z,49.02
2018-04-28T06:31:10.629Z,49.59
2018-04-28T06:33:37.451Z,49.71
2018-04-28T06:36:03.866Z,49.71
2018-04-28T06:38:31.041Z,49.68
2018-04-28T06:40:57.478Z,49.53
2018-04-28T06:43:23.902Z,50.55
2018-04-28T06:45:50.345Z,50.45
2018-04-28T06:48:16.741Z,49.98
2018-04-28T06:50:43.286Z,50.52
2018-04-28T06:53:10.426Z,51.26
2018-04-28T06:55:38.333Z,51.33
2018-04-28T06:58:04.750Z,50.78
2018-04-28T07:00:31.720Z,50.70
2018-04-28T07:02:58.109Z,50.40
2018-04-28T07:05:25.439Z,50.62
2018-04-28T07:07:51.887Z,50.16
2018-04-28T07:10:18.474Z,49.66
2018-04-28T07:12:44.855Z,49.79
2018-04-28T07:15:13.056Z,48.43
2018-04-28T07:17:40.833Z,47.89
2018-04-28T07:20:07.370Z,48.56
2018-04-28T07:22:36.484Z,48.55
2018-04-28T07:25:02.957Z,48.13
2018-04-28T07:27:29.379Z,48.51
2018-04-28T07:29:57.367Z,47.00
2018-04-28T07:32:23.934Z,47.79
2018-04-28T07:34:50.355Z,48.24
2018-04-28T07:37:16.925Z,48.68
2018-04-28T07:39:43.426Z,48.04
2018-04-28T07:42:09.852Z,47.64
2018-04-28T07:44:37.189Z,47.45
2018-04-28T07:47:03.760Z,47.52
2018-04-28T07:49:30.220Z,46.60
2018-04-28T07:51:56.914Z,45.05
2018-04-28T07:54:24.169Z,44.16
2018-04-28T07:56:51.282Z,43.54
2018-04-28T07:59:17.744Z,41.91
2018-04-28T08:01:44.945Z,43.59
2018-04-28T08:04:11.403Z,41.94
2018-04-28T08:06:38.529Z,42.13
2018-04-28T08:09:04.941Z,42.13
2018-04-28T08:11:31.521Z,42.28
2018-04-28T08:13:57.934Z,43.37
2018-04-28T08:16:24.357Z,44.19
2018-04-28T08:18:50.996Z,45.31
2018-04-28T08:21:17.700Z,45.50
2018-04-28T08:23:44.180Z,44.77
2018-04-28T08:26:10.594Z,44.94
2018-04-28T08:28:37.334Z,45.42
2018-04-28T08:31:04.154Z,45.08
2018-04-28T08:33:30.574Z,45.42
2018-04-28T08:35:57.792Z,44.97
2018-04-28T08:38:24.413Z,45.72
2018-04-28T08:40:51.021Z,46.75
2018-04-28T08:43:32.353Z,47.23
2018-04-28T08:45:59.130Z,47.31
2018-04-28T08:48:25.550Z,46.81
2018-04-28T08:50:52.716Z,46.58
2018-04-28T08:53:19.133Z,47.01
2018-04-28T08:55:46.449Z,47.68
2018-04-28T08:58:12.864Z,47.47
2018-04-28T09:00:48.209Z,47.03
2018-04-28T09:03:14.635Z,48.04
2018-04-28T09:05:42.798Z,46.98
2018-04-28T09:08:10.414Z,47.34
2018-04-28T09:10:38.742Z,46.93
2018-04-28T09:13:05.266Z,47.29
2018-04-28T09:15:31.613Z,47.77
2018-04-28T09:17:59.598Z,47.89
2018-04-28T09:20:27.167Z,49.21
2018-04-28T09:22:53.582Z,49.53
2018-04-28T09:25:20.017Z,50.04
2018-04-28T09:27:46.519Z,50.87
2018-04-28T09:30:14.225Z,50.61
2018-04-28T09:32:41.927Z,49.05
2018-04-28T09:35:10.880Z,49.94
2018-04-28T09:37:38.930Z,48.43
2018-04-28T09:40:05.345Z,49.78
2018-04-28T09:42:31.841Z,53.93
2018-04-28T09:44:58.502Z,52.65
2018-04-28T09:47:24.967Z,54.13
2018-04-28T09:49:51.424Z,52.78
2018-04-28T09:52:17.941Z,54.05
2018-04-28T09:54:44.440Z,53.07
2018-04-28T09:57:10.926Z,51.38
2018-04-28T09:59:37.394Z,50.39
2018-04-28T10:02:10.593Z,50.57
2018-04-28T10:04:37.693Z,50.74
2018-04-28T10:07:04.165Z,50.30
2018-04-28T10:09:31.750Z,49.29
2018-04-28T10:11:58.256Z,48.51
2018-04-28T10:14:24.703Z,47.27
2018-04-28T10:16:51.855Z,47.55
2018-04-28T10:19:18.994Z,47.19
2018-04-28T10:21:45.399Z,47.42
2018-04-28T10:24:11.817Z,47.40
2018-04-28T10:26:38.282Z,45.51
2018-04-28T10:29:04.750Z,44.43
2018-04-28T10:31:31.589Z,45.24
2018-04-28T10:33:58.755Z,45.43
2018-04-28T10:36:25.389Z,45.87
2018-04-28T10:38:51.757Z,45.23
2018-04-28T10:41:18.120Z,43.45
2018-04-28T10:43:45.238Z,41.88
2018-04-28T10:46:11.674Z,43.54
2018-04-28T10:48:38.040Z,40.57
2018-04-28T10:51:05.513Z,40.29
2018-04-28T10:53:31.974Z,41.71
2018-04-28T10:55:59.180Z,41.19
2018-04-28T10:58:26.388Z,42.20
2018-04-28T11:00:52.757Z,41.93
2018-04-28T11:03:19.917Z,41.23
2018-04-28T11:05:47.039Z,41.69
2018-04-28T11:08:13.496Z,40.50
2018-04-28T11:10:40.694Z,39.41
2018-04-28T11:13:07.112Z,38.95
2018-04-28T11:15:33.492Z,37.83
2018-04-28T11:17:59.904Z,37.60
2018-04-28T11:20:26.323Z,39.08
2018-04-28T11:22:52.795Z,39.17
2018-04-28T11:25:19.193Z,38.68
2018-04-28T11:27:45.589Z,38.79
2018-04-28T11:30:12.729Z,38.96
2018-04-28T11:32:39.483Z,38.60
2018-04-28T11:35:06.604Z,38.02
2018-04-28T11:37:32.969Z,37.30
2018-04-28T11:39:59.462Z,39.09
2018-04-28T11:42:25.881Z,38.00
2018-04-28T11:44:52.312Z,37.35
2018-04-28T11:47:18.856Z,37.87
2018-04-28T11:49:45.269Z,37.27
2018-04-28T11:52:11.702Z,36.34
2018-04-28T11:54:38.398Z,36.88
2018-04-28T11:57:04.794Z,36.96
2018-04-28T11:59:31.192Z,37.04
2018-04-28T12:01:57.687Z,35.80
2018-04-28T12:04:24.958Z,36.90
2018-04-28T12:06:51.485Z,35.84
2018-04-28T12:09:19.088Z,36.08
2018-04-28T12:11:45.573Z,34.40
2018-04-28T12:14:12.778Z,34.96
2018-04-28T12:16:39.266Z,36.36
2018-04-28T12:19:06.565Z,36.81
2018-04-28T12:21:33.776Z,35.88
2018-04-28T12:24:00.218Z,35.53
2018-04-28T12:26:26.622Z,36.63
2018-04-28T12:28:53.771Z,34.72
2018-04-28T12:31:21.111Z,36.24
2018-04-28T12:33:47.504Z,37.19
2018-04-28T12:36:13.904Z,36.23
2018-04-28T12:38:41.361Z,35.92
2018-04-28T12:41:08.546Z,35.76
2018-04-28T12:43:34.969Z,34.60
2018-04-28T12:46:01.371Z,34.69
2018-04-28T12:48:27.767Z,34.78
2018-04-28T12:50:54.166Z,34.26
2018-04-28T12:53:20.538Z,35.07
2018-04-28T12:55:47.657Z,35.25
2018-04-28T12:58:14.038Z,34.65
2018-04-28T13:00:41.227Z,34.28
2018-04-28T13:03:07.703Z,35.07
2018-04-28T13:05:34.162Z,34.68
2018-04-28T13:08:01.292Z,34.75
2018-04-28T13:10:27.739Z,35.55
2018-04-28T13:12:55.213Z,34.64
2018-04-28T13:15:22.402Z,33.26
2018-04-28T13:17:48.803Z,31.99
2018-04-28T13:20:15.160Z,29.89
2018-04-28T13:22:41.638Z,28.80
2018-04-28T13:25:08.145Z,27.16
2018-04-28T13:27:34.646Z,25.51
2018-04-28T13:30:01.088Z,23.85
2018-04-28T13:32:27.588Z,23.76
2018-04-28T13:34:54.692Z,22.44
2018-04-28T13:37:21.348Z,22.76
2018-04-28T13:39:48.512Z,22.06
2018-04-28T13:42:14.910Z,22.16
2018-04-28T13:44:41.360Z,22.15
2018-04-28T13:47:07.822Z,21.72
2018-04-28T13:49:34.962Z,22.96
2018-04-28T13:52:01.466Z,24.11
2018-04-28T13:54:27.892Z,23.51
2018-04-28T13:56:54.307Z,21.52
2018-04-28T13:59:20.761Z,21.29
2018-04-28T14:01:47.156Z,20.11
2018-04-28T14:04:13.531Z,20.24
2018-04-28T14:06:39.931Z,22.26
2018-04-28T14:09:06.399Z,22.77
2018-04-28T14:11:32.833Z,22.26
2018-04-28T14:13:59.251Z,20.22
2018-04-28T14:16:25.745Z,18.95
2018-04-28T14:18:52.170Z,18.42
2018-04-28T14:21:19.650Z,20.15
2018-04-28T14:23:46.054Z,22.28
2018-04-28T14:26:13.205Z,22.95
2018-04-28T14:28:40.484Z,24.82
2018-04-28T14:31:06.900Z,24.29
2018-04-28T14:33:33.333Z,24.29
2018-04-28T14:36:00.471Z,23.38
2018-04-28T14:38:27.807Z,22.85
2018-04-28T14:40:54.225Z,24.80
2018-04-28T14:43:20.679Z,24.11
2018-04-28T14:45:47.341Z,21.84
2018-04-28T14:48:13.733Z,18.90
2018-04-28T14:50:40.110Z,18.02
2018-04-28T14:53:07.520Z,19.01
2018-04-28T14:55:34.201Z,19.48
2018-04-28T14:58:01.346Z,20.81
2018-04-28T15:00:28.525Z,19.93
2018-04-28T15:02:54.987Z,19.69
2018-04-28T15:05:21.352Z,19.36
2018-04-28T15:07:48.828Z,19.39
2018-04-28T15:10:15.357Z,20.38
2018-04-28T15:12:42.541Z,20.11
2018-04-28T15:15:09.265Z,19.96
2018-04-28T15:17:35.723Z,20.15
2018-04-28T15:20:02.159Z,20.74
2018-04-28T15:22:28.676Z,20.37
2018-04-28T15:24:55.156Z,21.59
2018-04-28T15:27:21.900Z,19.72
2018-04-28T15:29:49.040Z,21.96
2018-04-28T15:32:15.446Z,21.23
2018-04-28T15:34:42.132Z,23.03
2018-04-28T15:37:09.355Z,21.94
2018-04-28T15:39:35.885Z,22.37
2018-04-28T15:42:02.249Z,23.82
2018-04-28T15:44:29.573Z,24.37
2018-04-28T15:46:55.998Z,22.90
2018-04-28T15:49:22.907Z,21.46
2018-04-28T15:51:49.352Z,23.87
2018-04-28T15:54:15.917Z,24.88
2018-04-28T15:56:42.470Z,24.34
2018-04-28T15:59:09.070Z,23.83
2018-04-28T16:01:35.672Z,24.69
2018-04-28T16:04:02.074Z,25.06
2018-04-28T16:06:28.610Z,22.99
2018-04-28T16:08:55.080Z,25.13
2018-04-28T16:11:22.207Z,27.01
2018-04-28T16:13:49.339Z,28.46
2018-04-28T16:16:15.734Z,31.51
2018-04-28T16:18:42.113Z,33.01
2018-04-28T16:21:08.501Z,32.99
2018-04-28T16:23:34.849Z,32.96
2018-04-28T16:26:01.237Z,31.78
2018-04-28T16:28:27.866Z,31.40
2018-04-28T16:30:54.231Z,31.86
2018-04-28T16:33:20.685Z,32.20
2018-04-28T16:35:47.165Z,32.45
2018-04-28T16:38:13.580Z,33.33
2018-04-28T16:40:41.323Z,33.51
2018-04-28T16:43:07.888Z,33.83
2018-04-28T16:45:35.167Z,30.20
2018-04-28T16:48:01.631Z,29.36
2018-04-28T16:50:28.362Z,26.66
2018-04-28T16:52:54.696Z,25.31
2018-04-28T16:55:21.118Z,24.24
2018-04-28T16:57:52.797Z,24.09
2018-04-28T17:00:19.483Z,24.59
2018-04-28T17:02:46.618Z,25.52
2018-04-28T17:05:13.194Z,26.38
2018-04-28T17:07:39.661Z,26.22
2018-04-28T17:10:06.206Z,28.12
2018-04-28T17:12:32.595Z,28.86
2018-04-28T17:14:59.005Z,31.16
2018-04-28T17:17:44.516Z,34.85
2018-04-28T17:20:10.903Z,36.79
2018-04-28T17:22:38.181Z,37.89
2018-04-28T17:25:04.655Z,39.60
2018-04-28T17:27:31.024Z,39.83
2018-04-28T17:29:58.185Z,41.18
2018-04-28T17:32:24.565Z,41.24
2018-04-28T17:34:50.988Z,41.51
2018-04-28T17:37:17.369Z,42.08
2018-04-28T17:39:44.489Z,42.28
2018-04-28T17:42:10.875Z,42.46
2018-04-28T17:44:38.125Z,42.43
2018-04-28T17:47:06.691Z,42.67
2018-04-28T17:49:33.821Z,42.83
2018-04-28T17:52:00.728Z,42.24
2018-04-28T17:54:27.425Z,42.48
2018-04-28T17:56:54.579Z,42.32
2018-04-28T17:59:20.958Z,42.62
2018-04-28T18:01:51.014Z,42.56
2018-04-28T18:04:17.713Z,42.49
2018-04-28T18:06:44.408Z,42.67
2018-04-28T18:09:11.508Z,42.65
2018-04-28T18:11:38.105Z,42.65
2018-04-28T18:14:05.013Z,42.67
2018-04-28T18:16:31.676Z,42.55
2018-04-28T18:18:58.198Z,42.88
2018-04-28T18:21:25.393Z,43.02
2018-04-28T18:23:51.797Z,42.92
2018-04-28T18:26:18.376Z,43.11
2018-04-28T18:28:46.291Z,43.40
2018-04-28T18:31:13.410Z,43.47
2018-04-28T18:33:41.305Z,43.72
2018-04-28T18:36:08.588Z,44.07
2018-04-28T18:38:35.158Z,44.24
2018-04-28T18:41:01.618Z,44.10
2018-04-28T18:43:27.985Z,44.38
2018-04-28T18:45:54.406Z,44.43
2018-04-28T18:48:20.783Z,44.72
2018-04-28T18:50:47.473Z,44.68
2018-04-28T18:53:13.949Z,44.70
2018-04-28T18:55:40.572Z,45.10
2018-04-28T18:58:07.178Z,44.71
2018-04-28T19:00:33.673Z,45.00
2018-04-28T19:03:00.348Z,45.59
2018-04-28T19:05:26.894Z,45.63
2018-04-28T19:07:53.337Z,45.46
2018-04-28T19:10:20.798Z,45.24
2018-04-28T19:12:47.614Z,45.89
2018-04-28T19:15:14.853Z,46.02
2018-04-28T19:17:41.946Z,45.48
2018-04-28T19:20:08.513Z,45.63
2018-04-28T19:22:35.811Z,46.13
2018-04-28T19:25:02.528Z,45.57
2018-04-28T19:27:28.909Z,45.83
2018-04-28T19:29:55.403Z,45.97
2018-04-28T19:32:22.758Z,46.37
2018-04-28T19:34:50.140Z,46.01
2018-04-28T19:37:16.827Z,46.18
2018-04-28T19:39:44.060Z,45.77
2018-04-28T19:42:10.544Z,45.64
2018-04-28T19:44:37.092Z,45.84
2018-04-28T19:47:03.792Z,45.44
2018-04-28T19:49:30.890Z,45.25
2018-04-28T19:51:57.325Z,45.34
2018-04-28T19:54:23.784Z,45.44
2018-04-28T19:56:50.178Z,45.50
2018-04-28T19:59:16.635Z,45.79
2018-04-28T20:01:43.007Z,45.73
2018-04-28T20:04:11.325Z,45.81
2018-04-28T20:06:37.703Z,46.32
2018-04-28T20:09:05.011Z,46.26
2018-04-28T20:11:31.580Z,46.31
2018-04-28T20:13:57.957Z,46.43
2018-04-28T20:16:24.691Z,46.96
2018-04-28T20:18:51.164Z,47.33
2018-04-28T20:21:17.638Z,47.46
2018-04-28T20:24:02.412Z,48.14
2018-04-28T20:26:29.560Z,48.21
2018-04-28T20:28:56.679Z,48.03
2018-04-28T20:31:23.079Z,48.44
2018-04-28T20:33:49.749Z,48.39
2018-04-28T20:36:16.145Z,48.71
2018-04-28T20:38:42.697Z,49.03
2018-04-28T20:41:09.952Z,49.32
2018-04-28T20:43:36.599Z,49.80
2018-04-28T20:46:02.964Z,50.21
2018-04-28T20:48:29.713Z,50.10
2018-04-28T20:50:56.831Z,50.45
2018-04-28T20:53:23.378Z,50.37
2018-04-28T20:55:49.766Z,51.04
2018-04-28T20:58:16.278Z,51.15
2018-04-28T21:00:43.338Z,51.16
2018-04-28T21:03:09.710Z,51.35
2018-04-28T21:05:36.098Z,51.60
2018-04-28T21:08:02.456Z,51.92
2018-04-28T21:10:29.855Z,52.17
2018-04-28T21:12:56.342Z,52.55
2018-04-28T21:15:22.720Z,52.70
2018-04-28T21:17:49.071Z,52.87
2018-04-28T21:20:17.976Z,52.39
2018-04-28T21:22:45.696Z,50.76
2018-04-28T21:25:12.643Z,50.36
2018-04-28T21:27:39.012Z,50.22
2018-04-28T21:30:05.439Z,50.11
2018-04-28T21:32:31.789Z,50.36
2018-04-28T21:34:58.621Z,50.34
2018-04-28T21:37:25.038Z,50.61
2018-04-28T21:39:53.166Z,50.66
2018-04-28T21:42:20.973Z,50.76
2018-04-28T21:44:48.122Z,50.91
2018-04-28T21:47:15.590Z,50.83
2018-04-28T21:49:43.041Z,50.95
2018-04-28T21:52:10.129Z,50.79
2018-04-28T21:54:36.554Z,50.77
2018-04-28T21:57:02.920Z,51.12
2018-04-28T21:59:29.276Z,51.38
2018-04-28T22:01:56.372Z,51.70
2018-04-28T22:04:22.947Z,52.01
2018-04-28T22:06:50.794Z,52.70
2018-04-28T22:09:17.143Z,52.76
2018-04-28T22:11:43.636Z,53.22
2018-04-28T22:14:10.102Z,53.14
2018-04-28T22:16:36.505Z,53.24
2018-04-28T22:19:02.922Z,53.42
2018-04-28T22:21:29.296Z,53.42
2018-04-28T22:23:55.681Z,53.28
2018-04-28T22:26:22.026Z,52.93
2018-04-28T22:28:48.391Z,52.79
2018-04-28T22:31:15.064Z,52.99
2018-04-28T22:33:42.125Z,52.75
2018-04-28T22:36:08.540Z,52.43
2018-04-28T22:38:35.949Z,52.60
2018-04-28T22:41:02.322Z,52.02
2018-04-28T22:43:29.409Z,52.00
2018-04-28T22:45:55.811Z,52.09
2018-04-28T22:48:22.995Z,52.10
2018-04-28T22:50:49.387Z,52.01
2018-04-28T22:53:16.501Z,51.79
2018-04-28T22:55:42.865Z,51.56
2018-04-28T22:58:10.066Z,51.18
2018-04-28T23:00:40.556Z,52.07
2018-04-28T23:03:07.741Z,51.16
2018-04-28T23:05:34.453Z,50.67
2018-04-28T23:08:01.592Z,50.90
2018-04-28T23:10:28.673Z,51.32
2018-04-28T23:12:55.387Z,51.96
2018-04-28T23:15:21.743Z,51.94
2018-04-28T23:17:48.097Z,51.79
2018-04-28T23:20:14.572Z,51.74
2018-04-28T23:22:41.658Z,51.26
2018-04-28T23:25:08.067Z,51.12
2018-04-28T23:27:34.434Z,51.14
2018-04-28T23:30:00.838Z,51.62
2018-04-28T23:32:27.216Z,51.45
2018-04-28T23:34:53.616Z,51.66
2018-04-28T23:37:19.995Z,51.82
2018-04-28T23:39:47.895Z,52.83
2018-04-28T23:42:14.547Z,59.76
2018-04-28T23:44:40.966Z,65.86
2018-04-28T23:47:07.351Z,67.36
2018-04-28T23:49:34.029Z,67.04
2018-04-28T23:52:01.138Z,65.63
2018-04-28T23:54:27.536Z,66.25
2018-04-28T23:56:53.912Z,65.65
2018-04-28T23:59:20.285Z,67.40
